MMSP

Details ICAO MMSP (SLP)
Name PONCIANO ARRIAGA INTL
Region Mexico
Timezone America/Mexico_City (UTC-5.0)
Plans Departing 10
Arriving 19
Stats Elevation 6,035 ft / 1,839 m (AMSL)
Location 22.258688° -100.932580°
Runways 2
Magnetic Variation 5.322° E
Sunrise 2018-05-21 12:03:11 UTC / 2018-05-21 07:03:11 Local
Sunset 2018-05-22 01:20:21 UTC / 2018-05-21 20:20:21 Local
Advertisement - Login to hide

Runways

ID Width Length Bearing (true) Bearing (mag) Surface Threshold Offset Overrun Length
04 98 ft / 30 m 3,264 ft / 995 m 47.19° 41.87° Asphalt 0 ft / 0 m 120 ft / 37 m
14 148 ft / 45 m 9,893 ft / 3,015 m 149.34° 144.02° Asphalt 0 ft / 0 m 191 ft / 58 m
22 98 ft / 30 m 3,264 ft / 995 m 227.19° 221.87° Asphalt 0 ft / 0 m 98 ft / 30 m
32 148 ft / 45 m 9,893 ft / 3,015 m 329.35° 324.03° Asphalt 0 ft / 0 m 191 ft / 58 m

Map

Weather


0- 5 10 15 20 25 30 35+ Temperature / ° C

Clouds and Precipitation
Forecast for 2018-05-22 00:00 UTC. Updated 16 minutes ago

Ground ~20,000 ft ~40,000 ft Winds

METAR

MMSP 212145Z 09007KT 10SM FEW030CB 27/11 A3010 RMK 8/300 SC

TAF

TAF MMSP 211652Z 2118/2224 12010KT P6SM BKN025 TX32/2121Z TN15/2212Z FM212300 20010KT 5SM VC RA BKN025CB TEMPO 2200/2204 3SM TSRA OVC015CB FM220400 00000KT 5SM HZ SCT015 TEMPO 2212/2216 2SM BR BKN010 FM221600 20010KT P6SM SCT030

Frequencies

Approach 118.90 MHz POTOSI APP/TWR
Warning: Do not use this data for real-world aviation or navigation. No guarantee of current accuracy is given.